sensor_id;sensor_type;location;lat;lon;timestamp;pressure;altitude;pressure_sealevel;temperature
69545;BMP180;56766;52.260;20.746;2024-01-06T00:00:52;99827.20;;;-1.80
69545;BMP180;56766;52.260;20.746;2024-01-06T00:03:39;99835.20;;;-1.80
69545;BMP180;56766;52.260;20.746;2024-01-06T00:06:06;99826.00;;;-1.90
69545;BMP180;56766;52.260;20.746;2024-01-06T00:08:33;99823.40;;;-1.90
69545;BMP180;56766;52.260;20.746;2024-01-06T00:10:59;99831.20;;;-1.90
69545;BMP180;56766;52.260;20.746;2024-01-06T00:13:29;99835.00;;;-2.00
69545;BMP180;56766;52.260;20.746;2024-01-06T00:15:56;99839.80;;;-2.00
69545;BMP180;56766;52.260;20.746;2024-01-06T00:18:23;99832.40;;;-2.04
69545;BMP180;56766;52.260;20.746;2024-01-06T00:20:49;99834.40;;;-2.02
69545;BMP180;56766;52.260;20.746;2024-01-06T00:23:17;99825.00;;;-2.04
69545;BMP180;56766;52.260;20.746;2024-01-06T00:25:43;99834.80;;;-2.10
69545;BMP180;56766;52.260;20.746;2024-01-06T00:28:10;99834.00;;;-2.06
69545;BMP180;56766;52.260;20.746;2024-01-06T00:30:36;99828.40;;;-2.10
69545;BMP180;56766;52.260;20.746;2024-01-06T00:33:03;99826.20;;;-2.10
69545;BMP180;56766;52.260;20.746;2024-01-06T00:35:30;99824.80;;;-2.10
69545;BMP180;56766;52.260;20.746;2024-01-06T00:37:57;99819.60;;;-2.12
69545;BMP180;56766;52.260;20.746;2024-01-06T00:40:24;99823.20;;;-2.20
69545;BMP180;56766;52.260;20.746;2024-01-06T00:42:50;99816.40;;;-2.20
69545;BMP180;56766;52.260;20.746;2024-01-06T00:45:17;99820.20;;;-2.20
69545;BMP180;56766;52.260;20.746;2024-01-06T00:47:44;99819.20;;;-2.20
69545;BMP180;56766;52.260;20.746;2024-01-06T00:50:11;99818.40;;;-2.20
69545;BMP180;56766;52.260;20.746;2024-01-06T00:52:38;99818.60;;;-2.24
69545;BMP180;56766;52.260;20.746;2024-01-06T00:55:05;99804.20;;;-2.30
69545;BMP180;56766;52.260;20.746;2024-01-06T00:57:31;99805.00;;;-2.30
69545;BMP180;56766;52.260;20.746;2024-01-06T00:59:58;99799.20;;;-2.30
69545;BMP180;56766;52.260;20.746;2024-01-06T01:02:25;99794.00;;;-2.30
69545;BMP180;56766;52.260;20.746;2024-01-06T01:04:51;99788.80;;;-2.30
69545;BMP180;56766;52.260;20.746;2024-01-06T01:07:19;99791.00;;;-2.30
69545;BMP180;56766;52.260;20.746;2024-01-06T01:09:45;99795.20;;;-2.28
69545;BMP180;56766;52.260;20.746;2024-01-06T01:12:12;99808.40;;;-2.30
69545;BMP180;56766;52.260;20.746;2024-01-06T01:14:39;99812.40;;;-2.30
69545;BMP180;56766;52.260;20.746;2024-01-06T01:17:06;99804.00;;;-2.30
69545;BMP180;56766;52.260;20.746;2024-01-06T01:19:32;99809.40;;;-2.26
69545;BMP180;56766;52.260;20.746;2024-01-06T01:21:59;99811.00;;;-2.30
69545;BMP180;56766;52.260;20.746;2024-01-06T01:24:26;99818.40;;;-2.30
69545;BMP180;56766;52.260;20.746;2024-01-06T01:26:52;99823.00;;;-2.30
69545;BMP180;56766;52.260;20.746;2024-01-06T01:29:19;99827.40;;;-2.30
69545;BMP180;56766;52.260;20.746;2024-01-06T01:31:46;99825.00;;;-2.30
69545;BMP180;56766;52.260;20.746;2024-01-06T01:34:13;99820.00;;;-2.30
69545;BMP180;56766;52.260;20.746;2024-01-06T01:36:40;99818.00;;;-2.30
69545;BMP180;56766;52.260;20.746;2024-01-06T01:39:07;99809.60;;;-2.30
69545;BMP180;56766;52.260;20.746;2024-01-06T01:41:33;99800.80;;;-2.36
69545;BMP180;56766;52.260;20.746;2024-01-06T01:44:00;99805.60;;;-2.40
69545;BMP180;56766;52.260;20.746;2024-01-06T01:46:31;99810.00;;;-2.40
69545;BMP180;56766;52.260;20.746;2024-01-06T01:49:00;99813.80;;;-2.40
69545;BMP180;56766;52.260;20.746;2024-01-06T01:51:31;99807.60;;;-2.40
69545;BMP180;56766;52.260;20.746;2024-01-06T01:54:02;99808.80;;;-2.42
69545;BMP180;56766;52.260;20.746;2024-01-06T01:56:34;99806.00;;;-2.40
69545;BMP180;56766;52.260;20.746;2024-01-06T01:59:11;99811.60;;;-2.40
69545;BMP180;56766;52.260;20.746;2024-01-06T02:01:40;99811.20;;;-2.40
69545;BMP180;56766;52.260;20.746;2024-01-06T02:04:09;99811.40;;;-2.40
69545;BMP180;56766;52.260;20.746;2024-01-06T02:06:35;99807.20;;;-2.40
69545;BMP180;56766;52.260;20.746;2024-01-06T02:09:02;99801.20;;;-2.40
69545;BMP180;56766;52.260;20.746;2024-01-06T02:11:29;99802.40;;;-2.40
69545;BMP180;56766;52.260;20.746;2024-01-06T02:13:55;99796.00;;;-2.40
69545;BMP180;56766;52.260;20.746;2024-01-06T02:16:22;99792.20;;;-2.40
69545;BMP180;56766;52.260;20.746;2024-01-06T02:18:49;99789.80;;;-2.40
69545;BMP180;56766;52.260;20.746;2024-01-06T02:21:17;99783.80;;;-2.40
69545;BMP180;56766;52.260;20.746;2024-01-06T02:23:44;99782.60;;;-2.40
69545;BMP180;56766;52.260;20.746;2024-01-06T02:26:11;99779.20;;;-2.40
69545;BMP180;56766;52.260;20.746;2024-01-06T02:28:38;99778.40;;;-2.40
69545;BMP180;56766;52.260;20.746;2024-01-06T02:31:04;99776.40;;;-2.40
69545;BMP180;56766;52.260;20.746;2024-01-06T02:33:31;99778.60;;;-2.40
69545;BMP180;56766;52.260;20.746;2024-01-06T02:35:58;99779.80;;;-2.40
69545;BMP180;56766;52.260;20.746;2024-01-06T02:38:24;99780.60;;;-2.40
69545;BMP180;56766;52.260;20.746;2024-01-06T02:40:51;99777.00;;;-2.40
69545;BMP180;56766;52.260;20.746;2024-01-06T02:43:18;99768.00;;;-2.38
69545;BMP180;56766;52.260;20.746;2024-01-06T02:45:44;99778.80;;;-2.32
69545;BMP180;56766;52.260;20.746;2024-01-06T02:48:13;99779.00;;;-2.30
69545;BMP180;56766;52.260;20.746;2024-01-06T02:50:40;99778.80;;;-2.30
69545;BMP180;56766;52.260;20.746;2024-01-06T02:53:06;99782.60;;;-2.30
69545;BMP180;56766;52.260;20.746;2024-01-06T02:55:33;99776.40;;;-2.30
69545;BMP180;56766;52.260;20.746;2024-01-06T02:57:59;99779.00;;;-2.30
69545;BMP180;56766;52.260;20.746;2024-01-06T03:00:26;99780.00;;;-2.30
69545;BMP180;56766;52.260;20.746;2024-01-06T03:02:53;99773.20;;;-2.30
69545;BMP180;56766;52.260;20.746;2024-01-06T03:05:20;99766.40;;;-2.30
69545;BMP180;56766;52.260;20.746;2024-01-06T03:07:46;99769.40;;;-2.30
69545;BMP180;56766;52.260;20.746;2024-01-06T03:10:13;99765.80;;;-2.28
69545;BMP180;56766;52.260;20.746;2024-01-06T03:12:40;99764.80;;;-2.22
69545;BMP180;56766;52.260;20.746;2024-01-06T03:15:06;99750.00;;;-2.22
69545;BMP180;56766;52.260;20.746;2024-01-06T03:17:33;99757.00;;;-2.20
69545;BMP180;56766;52.260;20.746;2024-01-06T03:20:00;99755.00;;;-2.20
69545;BMP180;56766;52.260;20.746;2024-01-06T03:22:26;99755.00;;;-2.20
69545;BMP180;56766;52.260;20.746;2024-01-06T03:24:53;99759.20;;;-2.20
69545;BMP180;56766;52.260;20.746;2024-01-06T03:27:20;99753.80;;;-2.20
69545;BMP180;56766;52.260;20.746;2024-01-06T03:29:46;99753.20;;;-2.20
69545;BMP180;56766;52.260;20.746;2024-01-06T03:32:13;99745.60;;;-2.20
69545;BMP180;56766;52.260;20.746;2024-01-06T03:34:41;99744.20;;;-2.20
69545;BMP180;56766;52.260;20.746;2024-01-06T03:37:08;99745.80;;;-2.20
69545;BMP180;56766;52.260;20.746;2024-01-06T03:39:34;99754.40;;;-2.20
69545;BMP180;56766;52.260;20.746;2024-01-06T03:42:01;99759.80;;;-2.20
69545;BMP180;56766;52.260;20.746;2024-01-06T03:44:29;99774.20;;;-2.20
69545;BMP180;56766;52.260;20.746;2024-01-06T03:46:57;99785.60;;;-2.20
69545;BMP180;56766;52.260;20.746;2024-01-06T03:49:24;99794.40;;;-2.20
69545;BMP180;56766;52.260;20.746;2024-01-06T03:51:51;99787.60;;;-2.10
69545;BMP180;56766;52.260;20.746;2024-01-06T03:54:18;99783.80;;;-2.10
69545;BMP180;56766;52.260;20.746;2024-01-06T03:56:45;99779.60;;;-2.10
69545;BMP180;56766;52.260;20.746;2024-01-06T03:59:11;99789.40;;;-2.10
69545;BMP180;56766;52.260;20.746;2024-01-06T04:01:38;99781.80;;;-2.10
69545;BMP180;56766;52.260;20.746;2024-01-06T04:04:05;99782.00;;;-2.10
69545;BMP180;56766;52.260;20.746;2024-01-06T04:06:32;99789.20;;;-2.12
69545;BMP180;56766;52.260;20.746;2024-01-06T04:09:00;99783.80;;;-2.10
69545;BMP180;56766;52.260;20.746;2024-01-06T04:11:28;99788.20;;;-2.10
69545;BMP180;56766;52.260;20.746;2024-01-06T04:13:54;99786.60;;;-2.14
69545;BMP180;56766;52.260;20.746;2024-01-06T04:16:21;99786.80;;;-2.14
69545;BMP180;56766;52.260;20.746;2024-01-06T04:18:48;99779.80;;;-2.20
69545;BMP180;56766;52.260;20.746;2024-01-06T04:21:14;99782.40;;;-2.20
69545;BMP180;56766;52.260;20.746;2024-01-06T04:23:41;99782.80;;;-2.20
69545;BMP180;56766;52.260;20.746;2024-01-06T04:26:08;99781.40;;;-2.20
69545;BMP180;56766;52.260;20.746;2024-01-06T04:28:35;99785.60;;;-2.20
69545;BMP180;56766;52.260;20.746;2024-01-06T04:31:02;99776.60;;;-2.20
69545;BMP180;56766;52.260;20.746;2024-01-06T04:33:29;99787.00;;;-2.20
69545;BMP180;56766;52.260;20.746;2024-01-06T04:35:55;99789.20;;;-2.20
69545;BMP180;56766;52.260;20.746;2024-01-06T04:38:22;99787.00;;;-2.20
69545;BMP180;56766;52.260;20.746;2024-01-06T04:40:49;99786.60;;;-2.20
69545;BMP180;56766;52.260;20.746;2024-01-06T04:43:15;99786.20;;;-2.20
69545;BMP180;56766;52.260;20.746;2024-01-06T04:45:42;99791.20;;;-2.20
69545;BMP180;56766;52.260;20.746;2024-01-06T04:48:09;99795.00;;;-2.20
69545;BMP180;56766;52.260;20.746;2024-01-06T04:50:35;99792.40;;;-2.20
69545;BMP180;56766;52.260;20.746;2024-01-06T04:53:02;99789.20;;;-2.22
69545;BMP180;56766;52.260;20.746;2024-01-06T04:55:29;99790.60;;;-2.30
69545;BMP180;56766;52.260;20.746;2024-01-06T04:57:55;99782.20;;;-2.30
69545;BMP180;56766;52.260;20.746;2024-01-06T05:00:22;99785.20;;;-2.28
69545;BMP180;56766;52.260;20.746;2024-01-06T05:02:49;99775.20;;;-2.30
69545;BMP180;56766;52.260;20.746;2024-01-06T05:05:15;99776.40;;;-2.30
69545;BMP180;56766;52.260;20.746;2024-01-06T05:07:42;99773.20;;;-2.30
69545;BMP180;56766;52.260;20.746;2024-01-06T05:10:09;99778.20;;;-2.30
69545;BMP180;56766;52.260;20.746;2024-01-06T05:12:35;99782.60;;;-2.40
69545;BMP180;56766;52.260;20.746;2024-01-06T05:15:02;99782.20;;;-2.40
69545;BMP180;56766;52.260;20.746;2024-01-06T05:17:29;99786.60;;;-2.40
69545;BMP180;56766;52.260;20.746;2024-01-06T05:19:56;99790.00;;;-2.40
69545;BMP180;56766;52.260;20.746;2024-01-06T05:22:22;99787.80;;;-2.40
69545;BMP180;56766;52.260;20.746;2024-01-06T05:24:50;99786.00;;;-2.40
69545;BMP180;56766;52.260;20.746;2024-01-06T05:27:19;99792.40;;;-2.40
69545;BMP180;56766;52.260;20.746;2024-01-06T05:29:46;99793.40;;;-2.42
69545;BMP180;56766;52.260;20.746;2024-01-06T05:32:16;99801.00;;;-2.40
69545;BMP180;56766;52.260;20.746;2024-01-06T05:34:43;99804.00;;;-2.46
69545;BMP180;56766;52.260;20.746;2024-01-06T05:37:10;99804.40;;;-2.40
69545;BMP180;56766;52.260;20.746;2024-01-06T05:39:38;99801.60;;;-2.50
69545;BMP180;56766;52.260;20.746;2024-01-06T05:42:09;99807.40;;;-2.40
69545;BMP180;56766;52.260;20.746;2024-01-06T05:44:36;99808.80;;;-2.40
69545;BMP180;56766;52.260;20.746;2024-01-06T05:47:04;99819.80;;;-2.40
69545;BMP180;56766;52.260;20.746;2024-01-06T05:49:31;99824.00;;;-2.40
69545;BMP180;56766;52.260;20.746;2024-01-06T05:51:57;99826.20;;;-2.40
69545;BMP180;56766;52.260;20.746;2024-01-06T05:54:24;99823.60;;;-2.40
69545;BMP180;56766;52.260;20.746;2024-01-06T05:56:51;99825.20;;;-2.40
69545;BMP180;56766;52.260;20.746;2024-01-06T05:59:18;99821.80;;;-2.40
69545;BMP180;56766;52.260;20.746;2024-01-06T06:01:44;99812.00;;;-2.40
69545;BMP180;56766;52.260;20.746;2024-01-06T06:04:11;99820.20;;;-2.42
69545;BMP180;56766;52.260;20.746;2024-01-06T06:06:38;99824.80;;;-2.40
69545;BMP180;56766;52.260;20.746;2024-01-06T06:09:05;99832.60;;;-2.48
69545;BMP180;56766;52.260;20.746;2024-01-06T06:11:33;99839.80;;;-2.50
69545;BMP180;56766;52.260;20.746;2024-01-06T06:14:00;99845.60;;;-2.46
69545;BMP180;56766;52.260;20.746;2024-01-06T06:16:29;99845.40;;;-2.50
69545;BMP180;56766;52.260;20.746;2024-01-06T06:18:56;99849.00;;;-2.40
69545;BMP180;56766;52.260;20.746;2024-01-06T06:21:23;99850.20;;;-2.46
69545;BMP180;56766;52.260;20.746;2024-01-06T06:23:50;99846.20;;;-2.44
69545;BMP180;56766;52.260;20.746;2024-01-06T06:26:17;99846.20;;;-2.50
69545;BMP180;56766;52.260;20.746;2024-01-06T06:28:44;99850.40;;;-2.50
69545;BMP180;56766;52.260;20.746;2024-01-06T06:31:10;99856.40;;;-2.50
69545;BMP180;56766;52.260;20.746;2024-01-06T06:33:37;99862.60;;;-2.50
69545;BMP180;56766;52.260;20.746;2024-01-06T06:36:06;99874.80;;;-2.50
69545;BMP180;56766;52.260;20.746;2024-01-06T06:38:32;99878.00;;;-2.50
69545;BMP180;56766;52.260;20.746;2024-01-06T06:40:59;99894.00;;;-2.50
69545;BMP180;56766;52.260;20.746;2024-01-06T06:43:26;99901.80;;;-2.50
69545;BMP180;56766;52.260;20.746;2024-01-06T06:45:52;99894.40;;;-2.50
69545;BMP180;56766;52.260;20.746;2024-01-06T06:48:19;99893.20;;;-2.50
69545;BMP180;56766;52.260;20.746;2024-01-06T06:50:45;99885.00;;;-2.48
69545;BMP180;56766;52.260;20.746;2024-01-06T06:53:12;99890.40;;;-2.46
69545;BMP180;56766;52.260;20.746;2024-01-06T06:55:39;99898.40;;;-2.40
69545;BMP180;56766;52.260;20.746;2024-01-06T06:58:07;99890.60;;;-2.44
69545;BMP180;56766;52.260;20.746;2024-01-06T07:00:34;99883.40;;;-2.40
69545;BMP180;56766;52.260;20.746;2024-01-06T07:03:01;99880.40;;;-2.44
69545;BMP180;56766;52.260;20.746;2024-01-06T07:05:28;99877.60;;;-2.42
69545;BMP180;56766;52.260;20.746;2024-01-06T07:07:55;99883.60;;;-2.40
69545;BMP180;56766;52.260;20.746;2024-01-06T07:10:22;99885.00;;;-2.44
69545;BMP180;56766;52.260;20.746;2024-01-06T07:12:49;99884.20;;;-2.46
69545;BMP180;56766;52.260;20.746;2024-01-06T07:15:16;99876.60;;;-2.50
69545;BMP180;56766;52.260;20.746;2024-01-06T07:17:42;99886.00;;;-2.50
69545;BMP180;56766;52.260;20.746;2024-01-06T07:20:09;99888.60;;;-2.50
69545;BMP180;56766;52.260;20.746;2024-01-06T07:22:36;99885.80;;;-2.50
69545;BMP180;56766;52.260;20.746;2024-01-06T07:25:03;99890.40;;;-2.50
69545;BMP180;56766;52.260;20.746;2024-01-06T07:27:30;99890.40;;;-2.50
69545;BMP180;56766;52.260;20.746;2024-01-06T07:29:56;99893.00;;;-2.40
69545;BMP180;56766;52.260;20.746;2024-01-06T07:32:23;99899.20;;;-2.40
69545;BMP180;56766;52.260;20.746;2024-01-06T07:34:51;99900.60;;;-2.40
69545;BMP180;56766;52.260;20.746;2024-01-06T07:37:17;99907.40;;;-2.40
69545;BMP180;56766;52.260;20.746;2024-01-06T07:39:44;99920.40;;;-2.40
69545;BMP180;56766;52.260;20.746;2024-01-06T07:42:11;99912.20;;;-2.40
69545;BMP180;56766;52.260;20.746;2024-01-06T07:44:38;99919.20;;;-2.36
69545;BMP180;56766;52.260;20.746;2024-01-06T07:47:04;99924.00;;;-2.30
69545;BMP180;56766;52.260;20.746;2024-01-06T07:49:32;99923.60;;;-2.30
69545;BMP180;56766;52.260;20.746;2024-01-06T07:51:58;99918.60;;;-2.30
69545;BMP180;56766;52.260;20.746;2024-01-06T07:54:26;99926.60;;;-2.30
69545;BMP180;56766;52.260;20.746;2024-01-06T07:56:53;99922.40;;;-2.30
69545;BMP180;56766;52.260;20.746;2024-01-06T07:59:20;99923.00;;;-2.24
69545;BMP180;56766;52.260;20.746;2024-01-06T08:01:46;99918.20;;;-2.20
69545;BMP180;56766;52.260;20.746;2024-01-06T08:04:13;99922.00;;;-2.20
69545;BMP180;56766;52.260;20.746;2024-01-06T08:06:40;99925.40;;;-2.20
69545;BMP180;56766;52.260;20.746;2024-01-06T08:09:06;99927.00;;;-2.20
69545;BMP180;56766;52.260;20.746;2024-01-06T08:11:34;99919.40;;;-2.16
69545;BMP180;56766;52.260;20.746;2024-01-06T08:14:01;99925.60;;;-2.10
69545;BMP180;56766;52.260;20.746;2024-01-06T08:16:28;99922.20;;;-2.10
69545;BMP180;56766;52.260;20.746;2024-01-06T08:18:54;99921.40;;;-2.06
69545;BMP180;56766;52.260;20.746;2024-01-06T08:21:21;99920.40;;;-2.00
69545;BMP180;56766;52.260;20.746;2024-01-06T08:23:48;99920.60;;;-2.00
69545;BMP180;56766;52.260;20.746;2024-01-06T08:26:14;99925.80;;;-2.00
69545;BMP180;56766;52.260;20.746;2024-01-06T08:28:41;99936.80;;;-1.90
69545;BMP180;56766;52.260;20.746;2024-01-06T08:31:08;99935.40;;;-1.90
69545;BMP180;56766;52.260;20.746;2024-01-06T08:33:35;99947.80;;;-1.80
69545;BMP180;56766;52.260;20.746;2024-01-06T08:36:02;99952.40;;;-1.80
69545;BMP180;56766;52.260;20.746;2024-01-06T08:38:29;99947.20;;;-1.82
69545;BMP180;56766;52.260;20.746;2024-01-06T08:40:56;99952.20;;;-1.80
69545;BMP180;56766;52.260;20.746;2024-01-06T08:43:22;99956.80;;;-1.86
69545;BMP180;56766;52.260;20.746;2024-01-06T08:45:49;99959.00;;;-1.90
69545;BMP180;56766;52.260;20.746;2024-01-06T08:48:17;99967.00;;;-1.90
69545;BMP180;56766;52.260;20.746;2024-01-06T08:50:45;99967.60;;;-1.84
69545;BMP180;56766;52.260;20.746;2024-01-06T08:53:13;99970.40;;;-1.80
69545;BMP180;56766;52.260;20.746;2024-01-06T08:55:40;99974.20;;;-1.80
69545;BMP180;56766;52.260;20.746;2024-01-06T08:58:07;99977.40;;;-1.80
69545;BMP180;56766;52.260;20.746;2024-01-06T09:00:33;99972.60;;;-1.80
69545;BMP180;56766;52.260;20.746;2024-01-06T09:03:00;99975.60;;;-1.80
69545;BMP180;56766;52.260;20.746;2024-01-06T09:05:27;99971.00;;;-1.80
69545;BMP180;56766;52.260;20.746;2024-01-06T09:07:53;99978.40;;;-1.80
69545;BMP180;56766;52.260;20.746;2024-01-06T09:10:20;99977.80;;;-1.80
69545;BMP180;56766;52.260;20.746;2024-01-06T09:12:47;99978.60;;;-1.80
69545;BMP180;56766;52.260;20.746;2024-01-06T09:15:14;99980.20;;;-1.78
69545;BMP180;56766;52.260;20.746;2024-01-06T09:17:41;99982.00;;;-1.72
69545;BMP180;56766;52.260;20.746;2024-01-06T09:20:08;99980.80;;;-1.74
69545;BMP180;56766;52.260;20.746;2024-01-06T09:22:35;99984.60;;;-1.74
69545;BMP180;56766;52.260;20.746;2024-01-06T09:25:02;99986.00;;;-1.70
69545;BMP180;56766;52.260;20.746;2024-01-06T09:27:29;99984.40;;;-1.70
69545;BMP180;56766;52.260;20.746;2024-01-06T09:29:55;99978.80;;;-1.70
69545;BMP180;56766;52.260;20.746;2024-01-06T09:32:22;99981.00;;;-1.70
69545;BMP180;56766;52.260;20.746;2024-01-06T09:34:49;99978.00;;;-1.70
69545;BMP180;56766;52.260;20.746;2024-01-06T09:37:16;99979.20;;;-1.62
69545;BMP180;56766;52.260;20.746;2024-01-06T09:39:42;99982.80;;;-1.60
69545;BMP180;56766;52.260;20.746;2024-01-06T09:42:09;99987.00;;;-1.62
69545;BMP180;56766;52.260;20.746;2024-01-06T09:44:38;99979.60;;;-1.66
69545;BMP180;56766;52.260;20.746;2024-01-06T09:47:06;99982.60;;;-1.60
69545;BMP180;56766;52.260;20.746;2024-01-06T09:49:36;99981.40;;;-1.60
69545;BMP180;56766;52.260;20.746;2024-01-06T09:52:13;99982.20;;;-1.58
69545;BMP180;56766;52.260;20.746;2024-01-06T09:54:55;99994.20;;;-1.52
69545;BMP180;56766;52.260;20.746;2024-01-06T09:57:23;99989.20;;;-1.54
69545;BMP180;56766;52.260;20.746;2024-01-06T09:59:51;99995.00;;;-1.50
69545;BMP180;56766;52.260;20.746;2024-01-06T10:02:18;99983.60;;;-1.50
69545;BMP180;56766;52.260;20.746;2024-01-06T10:04:47;99987.80;;;-1.50
69545;BMP180;56766;52.260;20.746;2024-01-06T10:07:13;99991.80;;;-1.50
69545;BMP180;56766;52.260;20.746;2024-01-06T10:09:41;99988.60;;;-1.48
69545;BMP180;56766;52.260;20.746;2024-01-06T10:12:09;99988.40;;;-1.50
69545;BMP180;56766;52.260;20.746;2024-01-06T10:14:37;99988.20;;;-1.50
69545;BMP180;56766;52.260;20.746;2024-01-06T10:17:06;99994.20;;;-1.50
69545;BMP180;56766;52.260;20.746;2024-01-06T10:19:35;99993.00;;;-1.50
69545;BMP180;56766;52.260;20.746;2024-01-06T10:22:03;100001.00;;;-1.50
69545;BMP180;56766;52.260;20.746;2024-01-06T10:24:30;99998.80;;;-1.60
69545;BMP180;56766;52.260;20.746;2024-01-06T10:26:58;99999.80;;;-1.52
69545;BMP180;56766;52.260;20.746;2024-01-06T10:29:26;100004.40;;;-1.50
69545;BMP180;56766;52.260;20.746;2024-01-06T10:31:54;100004.80;;;-1.50
69545;BMP180;56766;52.260;20.746;2024-01-06T10:34:24;99998.00;;;-1.52
69545;BMP180;56766;52.260;20.746;2024-01-06T10:36:51;100001.80;;;-1.60
69545;BMP180;56766;52.260;20.746;2024-01-06T10:39:21;100002.20;;;-1.60
69545;BMP180;56766;52.260;20.746;2024-01-06T10:41:49;100008.20;;;-1.60
69545;BMP180;56766;52.260;20.746;2024-01-06T10:44:16;100008.80;;;-1.60
69545;BMP180;56766;52.260;20.746;2024-01-06T10:46:44;100005.40;;;-1.58
69545;BMP180;56766;52.260;20.746;2024-01-06T10:49:11;100002.60;;;-1.50
69545;BMP180;56766;52.260;20.746;2024-01-06T10:51:38;100006.80;;;-1.52
69545;BMP180;56766;52.260;20.746;2024-01-06T10:54:06;100004.20;;;-1.60
69545;BMP180;56766;52.260;20.746;2024-01-06T10:56:38;100000.80;;;-1.60
69545;BMP180;56766;52.260;20.746;2024-01-06T10:59:05;100001.20;;;-1.54
69545;BMP180;56766;52.260;20.746;2024-01-06T11:01:35;100001.20;;;-1.60
69545;BMP180;56766;52.260;20.746;2024-01-06T11:04:02;99996.20;;;-1.60
69545;BMP180;56766;52.260;20.746;2024-01-06T11:06:35;99994.40;;;-1.50
69545;BMP180;56766;52.260;20.746;2024-01-06T11:09:15;99994.80;;;-1.50
69545;BMP180;56766;52.260;20.746;2024-01-06T11:11:45;99995.20;;;-1.46
69545;BMP180;56766;52.260;20.746;2024-01-06T11:14:23;100004.20;;;-1.40
69545;BMP180;56766;52.260;20.746;2024-01-06T11:16:53;100003.60;;;-1.40
69545;BMP180;56766;52.260;20.746;2024-01-06T11:22:24;100004.80;;;-1.30
69545;BMP180;56766;52.260;20.746;2024-01-06T11:24:56;100008.60;;;-1.30
69545;BMP180;56766;52.260;20.746;2024-01-06T11:27:26;100008.40;;;-1.20
69545;BMP180;56766;52.260;20.746;2024-01-06T11:29:59;100005.20;;;-1.20
69545;BMP180;56766;52.260;20.746;2024-01-06T11:32:39;100010.40;;;-1.10
69545;BMP180;56766;52.260;20.746;2024-01-06T11:35:12;100000.60;;;-1.10
69545;BMP180;56766;52.260;20.746;2024-01-06T11:38:02;100006.00;;;-1.12
69545;BMP180;56766;52.260;20.746;2024-01-06T11:40:36;100011.20;;;-1.10
69545;BMP180;56766;52.260;20.746;2024-01-06T11:43:14;100006.20;;;-1.10
69545;BMP180;56766;52.260;20.746;2024-01-06T11:45:43;100009.00;;;-1.00
69545;BMP180;56766;52.260;20.746;2024-01-06T11:48:11;100007.00;;;-1.00
69545;BMP180;56766;52.260;20.746;2024-01-06T11:50:41;100004.40;;;-0.90
69545;BMP180;56766;52.260;20.746;2024-01-06T11:53:09;100008.40;;;-0.80
69545;BMP180;56766;52.260;20.746;2024-01-06T11:55:39;100006.80;;;-0.82
69545;BMP180;56766;52.260;20.746;2024-01-06T11:58:06;100002.20;;;-0.90
69545;BMP180;56766;52.260;20.746;2024-01-06T12:00:34;100005.60;;;-0.80
69545;BMP180;56766;52.260;20.746;2024-01-06T12:03:03;100000.20;;;-0.80
69545;BMP180;56766;52.260;20.746;2024-01-06T12:05:31;100006.00;;;-0.70
69545;BMP180;56766;52.260;20.746;2024-01-06T12:08:02;100003.00;;;-0.70
69545;BMP180;56766;52.260;20.746;2024-01-06T12:10:33;99999.80;;;-0.78
69545;BMP180;56766;52.260;20.746;2024-01-06T12:13:03;100002.00;;;-0.80
69545;BMP180;56766;52.260;20.746;2024-01-06T12:15:32;100001.60;;;-0.82
69545;BMP180;56766;52.260;20.746;2024-01-06T12:18:02;100004.80;;;-0.84
69545;BMP180;56766;52.260;20.746;2024-01-06T12:20:29;100010.40;;;-0.80
69545;BMP180;56766;52.260;20.746;2024-01-06T12:22:56;100009.20;;;-0.90
69545;BMP180;56766;52.260;20.746;2024-01-06T12:25:25;100010.60;;;-0.90
69545;BMP180;56766;52.260;20.746;2024-01-06T12:27:52;100009.80;;;-0.90
69545;BMP180;56766;52.260;20.746;2024-01-06T12:30:23;100016.20;;;-0.90
69545;BMP180;56766;52.260;20.746;2024-01-06T12:32:51;100011.60;;;-0.90
69545;BMP180;56766;52.260;20.746;2024-01-06T12:35:21;100016.60;;;-0.90
69545;BMP180;56766;52.260;20.746;2024-01-06T12:37:49;100016.20;;;-0.90
69545;BMP180;56766;52.260;20.746;2024-01-06T12:40:16;100027.20;;;-0.90
69545;BMP180;56766;52.260;20.746;2024-01-06T12:42:45;100034.60;;;-0.90
69545;BMP180;56766;52.260;20.746;2024-01-06T12:45:16;100032.20;;;-0.90
69545;BMP180;56766;52.260;20.746;2024-01-06T12:47:43;100028.20;;;-0.90
69545;BMP180;56766;52.260;20.746;2024-01-06T12:50:10;100039.40;;;-1.00
69545;BMP180;56766;52.260;20.746;2024-01-06T12:52:37;100043.20;;;-1.00
69545;BMP180;56766;52.260;20.746;2024-01-06T12:55:07;100046.00;;;-1.10
69545;BMP180;56766;52.260;20.746;2024-01-06T12:57:34;100040.00;;;-1.14
69545;BMP180;56766;52.260;20.746;2024-01-06T13:00:00;100038.80;;;-1.20
69545;BMP180;56766;52.260;20.746;2024-01-06T13:02:27;100044.00;;;-1.20
69545;BMP180;56766;52.260;20.746;2024-01-06T13:04:54;100047.40;;;-1.30
69545;BMP180;56766;52.260;20.746;2024-01-06T13:07:21;100054.00;;;-1.40
69545;BMP180;56766;52.260;20.746;2024-01-06T13:09:49;100055.40;;;-1.40
69545;BMP180;56766;52.260;20.746;2024-01-06T13:12:16;100063.20;;;-1.44
69545;BMP180;56766;52.260;20.746;2024-01-06T13:14:45;100059.80;;;-1.50
69545;BMP180;56766;52.260;20.746;2024-01-06T13:17:13;100071.40;;;-1.58
69545;BMP180;56766;52.260;20.746;2024-01-06T13:19:41;100072.60;;;-1.60
69545;BMP180;56766;52.260;20.746;2024-01-06T13:22:07;100080.00;;;-1.60
69545;BMP180;56766;52.260;20.746;2024-01-06T13:24:34;100075.20;;;-1.68
69545;BMP180;56766;52.260;20.746;2024-01-06T13:27:01;100069.80;;;-1.60
69545;BMP180;56766;52.260;20.746;2024-01-06T13:29:29;100067.40;;;-1.60
69545;BMP180;56766;52.260;20.746;2024-01-06T13:31:56;100070.20;;;-1.60
69545;BMP180;56766;52.260;20.746;2024-01-06T13:34:23;100070.60;;;-1.60
69545;BMP180;56766;52.260;20.746;2024-01-06T13:36:50;100076.80;;;-1.60
69545;BMP180;56766;52.260;20.746;2024-01-06T13:39:17;100075.00;;;-1.60
69545;BMP180;56766;52.260;20.746;2024-01-06T13:41:47;100080.60;;;-1.60
69545;BMP180;56766;52.260;20.746;2024-01-06T13:44:15;100079.60;;;-1.54
69545;BMP180;56766;52.260;20.746;2024-01-06T13:46:42;100085.20;;;-1.56
69545;BMP180;56766;52.260;20.746;2024-01-06T13:49:12;100082.80;;;-1.60
69545;BMP180;56766;52.260;20.746;2024-01-06T13:51:40;100084.20;;;-1.60
69545;BMP180;56766;52.260;20.746;2024-01-06T13:54:07;100085.00;;;-1.58
69545;BMP180;56766;52.260;20.746;2024-01-06T13:56:34;100084.80;;;-1.52
69545;BMP180;56766;52.260;20.746;2024-01-06T13:59:01;100089.20;;;-1.60